Time;durP1;ratioP1;P1;durP2;ratioP2;P2;SDS_P1;SDS_P2;PMS_P1;PMS_P2;Temp;Humidity;BMP_temperature;BMP_pressure;BME280_temperature;BME280_humidity;BME280_pressure;Samples;Min_cycle;Max_cycle;Signal;HPM_P1;HPM_P2
2022/09/19 00:01:44;;;;;;;0.30;0.10;;;;;;;11.19;65.32;97308.81;4927411;28;20261;-79
2022/09/19 00:04:23;;;;;;;0.88;0.20;;;;;;;11.01;65.41;97308.09;4944845;28;20207;-79
2022/09/19 00:06:50;;;;;;;0.90;0.10;;;;;;;11.12;66.17;97316.84;4935914;28;20259;-79
2022/09/19 00:09:20;;;;;;;0.10;0.10;;;;;;;11.06;65.37;97315.19;4967023;28;20279;-79
2022/09/19 00:11:47;;;;;;;0.20;0.10;;;;;;;11.16;64.77;97315.31;4948172;28;20222;-79
2022/09/19 00:14:14;;;;;;;0.10;0.10;;;;;;;11.15;64.83;97302.50;4968833;28;20171;-79
2022/09/19 00:16:44;;;;;;;0.98;0.10;;;;;;;11.15;65.27;97310.34;4953506;28;20152;-79
2022/09/19 00:19:16;;;;;;;0.10;0.10;;;;;;;11.01;65.21;97310.69;4966872;28;20575;-79
2022/09/19 00:21:43;;;;;;;0.10;0.10;;;;;;;11.00;65.80;97311.75;4948599;28;20259;-79
2022/09/19 00:26:55;;;;;;;0.38;0.30;;;;;;;10.90;66.00;97321.25;4946831;28;20641;-79
2022/09/19 00:29:21;;;;;;;0.20;0.10;;;;;;;10.86;65.51;97313.94;4950572;28;20341;-79
2022/09/19 00:31:47;;;;;;;0.30;0.20;;;;;;;10.95;65.23;97324.72;4967027;28;20087;-79
2022/09/19 00:34:15;;;;;;;0.50;0.10;;;;;;;10.92;64.36;97322.59;4931884;28;20190;-79
2022/09/19 00:36:42;;;;;;;0.80;0.17;;;;;;;10.81;65.24;97318.28;4944283;28;20286;-79
2022/09/19 00:39:09;;;;;;;0.70;0.10;;;;;;;10.83;65.73;97322.22;4969678;28;20641;-79
2022/09/19 00:41:36;;;;;;;0.30;0.20;;;;;;;10.94;65.74;97317.91;4947128;28;20598;-79
2022/09/19 00:44:05;;;;;;;0.30;0.20;;;;;;;10.88;65.44;97329.28;4947710;28;20568;-79
2022/09/19 00:46:33;;;;;;;0.10;0.10;;;;;;;10.90;64.64;97321.25;4936270;28;20253;-79
2022/09/19 00:49:03;;;;;;;1.00;0.28;;;;;;;10.80;64.68;97321.94;4946809;28;20210;-78
2022/09/19 00:51:34;;;;;;;0.30;0.30;;;;;;;10.78;65.42;97324.78;4942268;28;20172;-78
2022/09/19 00:54:11;;;;;;;0.47;0.20;;;;;;;10.68;65.35;97325.41;4939143;28;20270;-78
2022/09/19 00:56:40;;;;;;;0.30;0.20;;;;;;;10.78;65.37;97329.16;4951126;28;20182;-78
2022/09/19 00:59:05;;;;;;;0.65;0.40;;;;;;;10.84;65.71;97331.59;4930287;28;20179;-78
2022/09/19 01:01:31;;;;;;;0.95;0.40;;;;;;;10.78;66.34;97331.78;4921409;28;20274;-78
2022/09/19 01:03:56;;;;;;;0.38;0.30;;;;;;;10.79;66.15;97339.34;4950609;28;20441;-78
2022/09/19 01:06:41;;;;;;;1.10;0.50;;;;;;;10.58;66.47;97340.13;4943378;28;20190;-78
2022/09/19 01:09:24;;;;;;;0.60;0.32;;;;;;;10.66;65.82;97340.50;4966775;28;20203;-78
2022/09/19 01:12:01;;;;;;;1.42;0.38;;;;;;;10.68;65.77;97335.84;4971343;28;20687;-78
2022/09/19 01:15:06;;;;;;;0.30;0.30;;;;;;;10.59;66.66;97339.88;4953126;28;20232;-78
2022/09/19 01:17:46;;;;;;;0.82;0.30;;;;;;;10.60;66.39;97344.06;4936985;28;20161;-79
2022/09/19 01:20:39;;;;;;;0.63;0.40;;;;;;;10.69;66.58;97336.63;4969594;28;20635;-78
2022/09/19 01:23:33;;;;;;;0.93;0.50;;;;;;;10.73;65.79;97349.94;4969410;28;20332;-78
2022/09/19 01:26:20;;;;;;;0.32;0.20;;;;;;;10.74;65.89;97336.69;4952879;28;20341;-78
2022/09/19 01:28:48;;;;;;;1.77;0.20;;;;;;;10.86;65.74;97337.38;4953444;28;20589;-79
2022/09/19 01:31:22;;;;;;;2.40;0.50;;;;;;;10.74;65.82;97343.72;4969036;28;20211;-79
2022/09/19 01:34:02;;;;;;;0.20;0.20;;;;;;;10.67;65.95;97349.09;4949127;28;20185;-78
2022/09/19 01:36:31;;;;;;;1.40;0.17;;;;;;;10.68;66.19;97343.66;4966138;28;20582;-78
2022/09/19 01:38:59;;;;;;;1.05;0.20;;;;;;;10.78;66.41;97352.59;4935846;28;20353;-78
2022/09/19 01:41:24;;;;;;;1.13;0.13;;;;;;;10.79;66.73;97347.16;4929428;28;20375;-79
2022/09/19 01:43:50;;;;;;;0.65;0.20;;;;;;;10.79;66.64;97360.19;4936233;28;20171;-78
2022/09/19 01:46:27;;;;;;;1.63;0.20;;;;;;;10.52;66.93;97359.28;4962087;28;20206;-78
2022/09/19 01:49:21;;;;;;;1.88;0.20;;;;;;;10.46;66.81;97366.25;4952362;28;20722;-78
2022/09/19 01:51:55;;;;;;;1.15;0.13;;;;;;;10.57;66.57;97364.56;4952026;28;20199;-78
2022/09/19 01:55:02;;;;;;;2.93;0.20;;;;;;;10.39;66.75;97366.41;4965763;28;20230;-78
2022/09/19 01:57:41;;;;;;;1.75;0.65;;;;;;;10.52;66.78;97369.72;4942954;28;20280;-79
2022/09/19 02:00:15;;;;;;;4.18;0.40;;;;;;;10.44;67.15;97371.69;4952656;28;20340;-78
2022/09/19 02:02:52;;;;;;;1.35;0.25;;;;;;;10.61;67.04;97366.47;4961804;28;20211;-78
2022/09/19 02:05:37;;;;;;;1.52;0.40;;;;;;;10.39;67.19;97373.44;4968144;28;20299;-79
2022/09/19 02:08:17;;;;;;;0.63;0.20;;;;;;;10.42;67.41;97372.97;4968269;28;20626;-79
2022/09/19 02:11:14;;;;;;;1.63;0.20;;;;;;;10.30;67.18;97380.84;4961633;28;20160;-78
2022/09/19 02:13:44;;;;;;;1.75;0.30;;;;;;;10.38;66.87;97383.03;4926987;28;20202;-78
2022/09/19 02:16:16;;;;;;;0.77;0.20;;;;;;;10.27;66.52;97382.06;4952691;28;20282;-78
2022/09/19 02:18:53;;;;;;;1.90;0.20;;;;;;;10.30;67.45;97381.63;4939572;28;20195;-79
2022/09/19 02:21:25;;;;;;;0.93;0.40;;;;;;;10.28;67.08;97381.06;4965558;28;20726;-79
2022/09/19 02:23:52;;;;;;;1.38;0.30;;;;;;;10.32;66.88;97383.22;4945500;28;20244;-78
2022/09/19 02:26:20;;;;;;;1.42;0.20;;;;;;;10.23;67.24;97378.38;4951882;28;20570;-78
2022/09/19 02:28:49;;;;;;;2.08;0.20;;;;;;;10.30;67.07;97383.44;4939229;28;20273;-79
2022/09/19 02:31:14;;;;;;;1.92;0.22;;;;;;;10.32;67.23;97384.00;4949736;28;20201;-78
2022/09/19 02:33:43;;;;;;;1.20;0.20;;;;;;;10.17;67.30;97386.34;4954738;28;20270;-78
2022/09/19 02:36:13;;;;;;;0.77;0.30;;;;;;;10.20;67.22;97386.66;4940888;28;20264;-78
2022/09/19 02:38:51;;;;;;;0.40;0.40;;;;;;;10.13;67.25;97386.81;4950482;28;20194;-78
2022/09/19 02:41:36;;;;;;;0.63;0.10;;;;;;;10.08;67.04;97393.75;4966816;28;20281;-78
2022/09/19 02:44:21;;;;;;;1.23;0.20;;;;;;;10.07;67.67;97390.34;4951801;28;20215;-78
2022/09/19 02:47:14;;;;;;;0.60;0.28;;;;;;;10.07;67.27;97394.75;4956429;28;20790;-78
2022/09/19 02:49:52;;;;;;;1.30;0.20;;;;;;;10.11;67.38;97398.50;4945688;28;20242;-78
2022/09/19 02:52:24;;;;;;;1.15;0.38;;;;;;;10.20;67.23;97381.44;4930822;28;20187;-79
2022/09/19 02:54:51;;;;;;;1.95;0.22;;;;;;;10.40;67.19;97393.22;4948402;28;20214;-78
2022/09/19 02:57:19;;;;;;;2.50;0.40;;;;;;;10.49;67.64;97397.03;4964387;28;20357;-79
2022/09/19 02:59:48;;;;;;;2.05;0.90;;;;;;;10.55;67.34;97392.66;4938559;28;20189;-78
2022/09/19 03:02:23;;;;;;;1.58;0.40;;;;;;;10.48;67.67;97387.63;4948577;28;20196;-79
2022/09/19 03:04:54;;;;;;;3.20;0.52;;;;;;;10.56;67.24;97387.22;4918773;28;20277;-78
2022/09/19 03:07:23;;;;;;;2.58;0.30;;;;;;;10.66;66.86;97389.97;4934310;28;20370;-78
2022/09/19 03:10:15;;;;;;;3.42;0.68;;;;;;;10.62;67.07;97388.84;4938809;28;20500;-78
2022/09/19 03:12:50;;;;;;;1.98;0.30;;;;;;;10.80;66.50;97395.63;4951350;28;20696;-79
2022/09/19 03:15:18;;;;;;;2.10;0.52;;;;;;;10.78;66.44;97389.06;4971062;28;20531;-78
2022/09/19 03:17:49;;;;;;;1.35;0.50;;;;;;;10.74;66.91;97396.56;4932344;28;20219;-78
2022/09/19 03:20:16;;;;;;;2.53;0.43;;;;;;;10.73;66.78;97389.81;4933430;28;20650;-78
2022/09/19 03:22:41;;;;;;;1.73;0.40;;;;;;;10.81;66.50;97397.22;4951780;28;20284;-78
2022/09/19 03:25:08;;;;;;;0.77;0.40;;;;;;;10.82;66.37;97398.78;4932101;28;20254;-78
2022/09/19 03:27:36;;;;;;;4.28;0.50;;;;;;;10.80;66.62;97397.47;4970132;28;20144;-78
2022/09/19 03:30:05;;;;;;;1.90;0.32;;;;;;;10.65;66.39;97403.22;4939151;28;20312;-77
2022/09/19 03:32:30;;;;;;;4.07;0.47;;;;;;;10.72;66.77;97400.47;4936433;28;20290;-78
2022/09/19 03:34:56;;;;;;;2.20;0.50;;;;;;;10.74;66.53;97412.19;4938671;28;20197;-78
2022/09/19 03:37:22;;;;;;;1.27;0.50;;;;;;;10.65;66.69;97411.81;4932996;28;20378;-78
2022/09/19 03:39:48;;;;;;;2.33;0.30;;;;;;;10.62;66.41;97408.91;4945741;28;20178;-78
2022/09/19 03:42:14;;;;;;;0.80;0.35;;;;;;;10.53;67.03;97405.16;4930339;28;20141;-78
2022/09/19 03:44:39;;;;;;;1.88;0.45;;;;;;;10.55;66.83;97398.66;4932437;28;20279;-78
2022/09/19 03:47:05;;;;;;;2.35;0.30;;;;;;;10.61;66.80;97402.91;4935327;28;20164;-78
2022/09/19 03:49:30;;;;;;;3.42;0.40;;;;;;;10.64;66.21;97396.44;4931659;28;20222;-78
2022/09/19 03:51:57;;;;;;;2.20;0.90;;;;;;;10.65;66.11;97408.44;4932728;28;20218;-78
2022/09/19 03:54:23;;;;;;;2.78;0.50;;;;;;;10.60;66.88;97403.16;4968136;28;20624;-78
2022/09/19 03:56:48;;;;;;;0.90;0.40;;;;;;;10.59;66.78;97409.38;4931798;28;20214;-79
2022/09/19 03:59:13;;;;;;;2.20;0.43;;;;;;;10.57;66.84;97406.22;4938223;28;20234;-77
2022/09/19 04:01:39;;;;;;;1.63;0.70;;;;;;;10.55;66.50;97403.88;4927302;28;20203;-78
2022/09/19 04:04:05;;;;;;;2.78;0.43;;;;;;;10.53;66.71;97411.13;4963069;28;20187;-78
2022/09/19 04:06:31;;;;;;;1.58;0.70;;;;;;;10.49;66.50;97421.22;4951716;28;20339;-78
2022/09/19 04:08:57;;;;;;;2.83;0.60;;;;;;;10.44;66.66;97409.97;4947664;28;20373;-78
2022/09/19 04:11:22;;;;;;;2.55;0.43;;;;;;;10.42;67.16;97414.63;4950631;28;20199;-78
2022/09/19 04:13:50;;;;;;;2.58;0.40;;;;;;;10.43;67.14;97410.97;4946148;28;20197;-78
2022/09/19 04:16:17;;;;;;;1.80;0.60;;;;;;;10.41;67.42;97411.22;4966088;28;20245;-78
2022/09/19 04:18:47;;;;;;;1.95;0.63;;;;;;;10.45;67.70;97429.75;4934560;28;20168;-78
2022/09/19 04:21:13;;;;;;;3.10;0.60;;;;;;;10.48;67.22;97418.88;4932268;28;20242;-78
2022/09/19 04:23:42;;;;;;;2.05;0.70;;;;;;;10.36;67.44;97423.38;4965430;28;20199;-79
2022/09/19 04:26:09;;;;;;;3.92;1.00;;;;;;;10.51;67.65;97426.22;4950502;28;20573;-78
2022/09/19 04:28:35;;;;;;;5.65;0.80;;;;;;;10.51;67.41;97431.41;4952076;28;20269;-78
2022/09/19 04:31:01;;;;;;;0.82;0.57;;;;;;;10.52;67.40;97422.59;4930454;28;20245;-78
2022/09/19 04:33:27;;;;;;;4.82;1.27;;;;;;;10.57;67.75;97427.06;4936847;28;20280;-78
2022/09/19 04:35:52;;;;;;;1.83;0.75;;;;;;;10.55;67.66;97424.69;4937771;28;20198;-78
2022/09/19 04:38:18;;;;;;;1.77;0.70;;;;;;;10.60;67.90;97427.38;4940417;28;20183;-78
2022/09/19 04:40:48;;;;;;;2.25;0.65;;;;;;;10.53;67.95;97441.59;4954107;28;20222;-78
2022/09/19 04:43:18;;;;;;;3.00;0.80;;;;;;;10.58;67.70;97434.63;4969936;28;20210;-78
2022/09/19 04:45:48;;;;;;;1.60;0.60;;;;;;;10.74;67.37;97433.03;4930844;28;20241;-78
2022/09/19 04:48:14;;;;;;;1.92;0.50;;;;;;;10.79;67.45;97433.13;4946242;28;20253;-78
2022/09/19 04:50:40;;;;;;;3.38;0.80;;;;;;;10.79;67.35;97432.34;4951351;28;20200;-78
2022/09/19 04:53:05;;;;;;;4.05;0.70;;;;;;;10.77;67.48;97432.56;4937641;28;20180;-77
2022/09/19 04:55:31;;;;;;;4.93;0.90;;;;;;;10.78;67.20;97444.56;4936984;28;20250;-78
2022/09/19 04:57:57;;;;;;;6.43;0.80;;;;;;;10.65;67.65;97435.25;4949451;28;20233;-78
2022/09/19 05:00:39;;;;;;;3.17;1.00;;;;;;;10.74;67.79;97453.09;4936802;28;20191;-79
2022/09/19 05:03:11;;;;;;;1.15;0.57;;;;;;;10.73;66.97;97459.31;4934184;28;20268;-78
2022/09/19 05:05:38;;;;;;;1.40;0.90;;;;;;;10.74;67.40;97466.13;4969116;28;20249;-78
2022/09/19 05:08:04;;;;;;;4.40;0.73;;;;;;;10.74;66.72;97458.31;4930267;28;20721;-78
2022/09/19 05:10:32;;;;;;;4.10;0.80;;;;;;;10.77;66.76;97461.22;4961509;28;20723;-79
2022/09/19 05:12:57;;;;;;;2.63;0.80;;;;;;;10.72;67.15;97462.97;4930655;28;20202;-78
2022/09/19 05:15:24;;;;;;;2.58;0.95;;;;;;;10.79;67.59;97468.78;4936021;28;20172;-78
2022/09/19 05:17:52;;;;;;;4.38;0.93;;;;;;;10.93;67.60;97467.44;4963857;28;20192;-78
2022/09/19 05:20:19;;;;;;;7.82;1.55;;;;;;;10.92;67.45;97475.50;4946501;28;20204;-78
2022/09/19 05:22:44;;;;;;;2.92;0.90;;;;;;;10.94;67.83;97471.63;4949527;28;20224;-78
2022/09/19 05:25:10;;;;;;;1.75;0.65;;;;;;;11.03;67.19;97474.59;4952514;28;20270;-78
2022/09/19 05:27:36;;;;;;;5.38;1.55;;;;;;;10.99;67.13;97471.69;4922451;28;20185;-78
2022/09/19 05:30:03;;;;;;;5.05;1.15;;;;;;;10.92;67.50;97476.28;4941756;28;20218;-78
2022/09/19 05:32:29;;;;;;;3.92;0.95;;;;;;;11.01;67.00;97480.06;4922607;28;20189;-78
2022/09/19 05:35:00;;;;;;;1.52;0.80;;;;;;;11.02;67.05;97481.66;4923201;28;20251;-78
2022/09/19 05:37:30;;;;;;;2.00;0.80;;;;;;;10.87;67.39;97478.81;4936663;28;20206;-78
2022/09/19 05:39:55;;;;;;;2.55;0.80;;;;;;;11.04;67.19;97484.78;4945553;28;20295;-78
2022/09/19 05:42:21;;;;;;;5.20;1.10;;;;;;;11.12;67.04;97485.41;4952277;28;20877;-79
2022/09/19 05:44:46;;;;;;;4.65;0.85;;;;;;;11.12;66.95;97481.00;4936648;28;20178;-78
2022/09/19 05:47:11;;;;;;;5.55;1.27;;;;;;;11.13;67.31;97492.22;4968366;28;20357;-78
2022/09/19 05:49:37;;;;;;;4.80;1.05;;;;;;;11.14;67.31;97488.56;4964770;28;20182;-78
2022/09/19 05:53:52;;;;;;;3.28;1.00;;;;;;;11.19;67.27;97493.84;4944056;28;20226;-78
2022/09/19 05:54:48;;;;;;;3.72;1.02;;;;;;;11.26;67.11;97494.47;4963123;28;20783;-77
2022/09/19 05:57:13;;;;;;;3.90;1.00;;;;;;;11.38;67.15;97495.16;4966130;28;20184;-78
2022/09/19 05:59:39;;;;;;;5.20;1.13;;;;;;;11.34;66.63;97488.84;4944021;28;20133;-78
2022/09/19 06:02:05;;;;;;;1.75;0.70;;;;;;;11.43;66.70;97492.63;4949543;28;20280;-78
2022/09/19 06:04:30;;;;;;;4.85;1.13;;;;;;;11.49;66.50;97490.06;4949726;28;20207;-79
2022/09/19 06:06:56;;;;;;;5.78;1.05;;;;;;;11.47;66.60;97494.75;4934138;28;20304;-78
2022/09/19 06:09:21;;;;;;;3.55;1.40;;;;;;;11.50;66.49;97500.25;4956239;28;20147;-78
2022/09/19 06:11:46;;;;;;;6.20;1.30;;;;;;;11.48;67.30;97509.34;4968818;28;20181;-78
2022/09/19 06:14:15;;;;;;;6.03;1.20;;;;;;;11.48;67.02;97515.38;4935586;28;20326;-78
2022/09/19 06:16:41;;;;;;;3.65;1.20;;;;;;;11.58;66.78;97506.88;4956498;28;20191;-79
2022/09/19 06:19:07;;;;;;;5.78;1.30;;;;;;;11.67;66.97;97504.63;4968602;28;20281;-78
2022/09/19 06:21:33;;;;;;;2.13;1.30;;;;;;;11.66;66.92;97514.28;4969152;28;20197;-78
2022/09/19 06:23:58;;;;;;;3.65;1.60;;;;;;;11.64;67.01;97523.38;4947667;28;20271;-79
2022/09/19 06:26:26;;;;;;;2.15;1.33;;;;;;;11.70;67.23;97528.41;4965168;28;20310;-79
2022/09/19 06:28:51;;;;;;;4.40;1.10;;;;;;;11.75;66.96;97528.47;4962184;28;20338;-79
2022/09/19 06:31:16;;;;;;;3.45;1.38;;;;;;;11.78;67.19;97535.81;4943049;28;20280;-78
2022/09/19 06:33:42;;;;;;;3.65;1.52;;;;;;;11.84;66.73;97533.25;4958178;28;20222;-79
2022/09/19 06:36:09;;;;;;;3.28;1.40;;;;;;;11.80;66.96;97533.75;4961440;28;20203;-78
2022/09/19 06:38:35;;;;;;;3.63;1.10;;;;;;;11.76;67.65;97544.91;4947197;28;20227;-79
2022/09/19 06:41:00;;;;;;;4.15;1.35;;;;;;;11.72;68.19;97552.44;4952574;28;20215;-79
2022/09/19 06:43:26;;;;;;;3.75;1.38;;;;;;;11.80;67.94;97548.59;4954115;28;20208;-78
2022/09/19 06:45:52;;;;;;;4.35;1.23;;;;;;;11.87;67.96;97553.66;4934052;28;20198;-78
2022/09/19 06:48:18;;;;;;;4.55;1.48;;;;;;;11.92;67.94;97562.34;4948796;28;20633;-78
2022/09/19 06:50:47;;;;;;;1.90;1.23;;;;;;;11.86;68.51;97558.09;4947906;28;20254;-79
2022/09/19 06:53:13;;;;;;;4.25;1.17;;;;;;;11.92;67.97;97557.13;4939899;28;20648;-79
2022/09/19 06:55:39;;;;;;;4.95;1.42;;;;;;;11.97;68.45;97562.41;4943355;28;20227;-79
2022/09/19 06:58:05;;;;;;;2.13;0.95;;;;;;;11.96;67.73;97555.63;4944324;28;20281;-79
2022/09/19 07:00:35;;;;;;;3.10;1.55;;;;;;;12.01;67.85;97560.09;4948499;28;20183;-78
2022/09/19 07:03:15;;;;;;;4.43;1.17;;;;;;;11.93;68.08;97565.78;4961379;28;20168;-79
2022/09/19 07:05:42;;;;;;;3.67;1.73;;;;;;;12.14;67.16;97562.34;4962384;28;20292;-79
2022/09/19 07:08:09;;;;;;;3.13;1.10;;;;;;;12.19;67.61;97569.44;4971942;28;20206;-78
2022/09/19 07:10:36;;;;;;;2.28;1.00;;;;;;;12.27;67.26;97568.22;4929099;28;20174;-78
2022/09/19 07:13:03;;;;;;;4.82;1.77;;;;;;;12.30;66.96;97578.97;4948245;28;20280;-79
2022/09/19 07:15:29;;;;;;;4.65;1.52;;;;;;;12.36;67.26;97585.03;4953883;28;20198;-79
2022/09/19 07:17:57;;;;;;;3.60;1.58;;;;;;;12.30;67.53;97586.00;4955543;28;20700;-79
2022/09/19 07:20:24;;;;;;;2.38;0.90;;;;;;;12.38;67.57;97590.00;4952861;28;20206;-78
2022/09/19 07:23:00;;;;;;;4.80;1.27;;;;;;;12.33;67.71;97582.91;4960798;28;20169;-79
2022/09/19 07:25:26;;;;;;;4.05;1.48;;;;;;;12.48;68.19;97590.13;4954263;28;20171;-79
2022/09/19 07:28:00;;;;;;;3.17;1.08;;;;;;;12.45;68.00;97591.38;4946391;28;20185;-78
2022/09/19 07:30:26;;;;;;;3.87;1.43;;;;;;;12.73;68.61;97584.34;4969019;28;20617;-79
2022/09/19 07:32:57;;;;;;;4.28;1.90;;;;;;;12.81;68.32;97599.56;4948108;28;20194;-79
2022/09/19 07:35:27;;;;;;;4.22;1.40;;;;;;;13.17;66.44;97602.47;4953930;28;20229;-79
2022/09/19 07:37:53;;;;;;;6.55;2.10;;;;;;;13.38;65.23;97607.88;4964494;28;20214;-79
2022/09/19 07:40:19;;;;;;;3.45;1.70;;;;;;;13.49;65.30;97601.69;4936072;28;20334;-79
2022/09/19 07:42:45;;;;;;;5.93;1.80;;;;;;;13.53;65.33;97604.59;4949922;28;20195;-79
2022/09/19 07:45:10;;;;;;;2.63;1.70;;;;;;;13.55;66.67;97612.97;4935274;28;20175;-79
2022/09/19 07:47:42;;;;;;;5.45;1.30;;;;;;;13.44;66.37;97609.50;4944385;28;20364;-79
2022/09/19 07:50:09;;;;;;;4.03;1.52;;;;;;;13.73;65.34;97607.31;4925430;28;20222;-79
2022/09/19 07:52:35;;;;;;;3.15;1.80;;;;;;;13.74;66.55;97615.94;4923563;28;20640;-79
2022/09/19 07:55:00;;;;;;;5.38;3.63;;;;;;;13.83;65.59;97615.22;4946898;28;20163;-79
2022/09/19 07:57:25;;;;;;;9.88;3.90;;;;;;;13.92;65.33;97612.91;4934763;28;20270;-79
2022/09/19 07:59:51;;;;;;;8.20;2.00;;;;;;;14.04;66.22;97610.84;4957064;28;20089;-79
2022/09/19 08:02:16;;;;;;;3.55;1.00;;;;;;;14.22;65.20;97616.69;4954315;28;20185;-79
2022/09/19 08:04:41;;;;;;;6.07;1.30;;;;;;;14.36;64.57;97628.28;4959210;28;20257;-78
2022/09/19 08:07:07;;;;;;;5.28;1.40;;;;;;;14.33;64.87;97628.78;4948939;28;20249;-79
2022/09/19 08:09:33;;;;;;;3.97;1.33;;;;;;;14.42;64.14;97627.22;4946317;28;20208;-79
2022/09/19 08:12:06;;;;;;;2.30;1.08;;;;;;;14.36;64.50;97625.66;4946545;28;20198;-78
2022/09/19 08:14:31;;;;;;;3.60;1.35;;;;;;;14.64;63.92;97628.13;4965057;28;20191;-78
2022/09/19 08:16:56;;;;;;;4.18;1.67;;;;;;;14.74;63.74;97631.53;4938430;28;20187;-79
2022/09/19 08:19:22;;;;;;;5.07;1.92;;;;;;;14.81;63.16;97627.88;4957446;28;20209;-79
2022/09/19 08:21:48;;;;;;;2.53;1.38;;;;;;;14.91;62.53;97622.66;4957611;28;20273;-78
2022/09/19 08:24:14;;;;;;;5.00;1.58;;;;;;;14.93;62.62;97629.19;4919662;28;20216;-78
2022/09/19 08:26:39;;;;;;;7.47;1.70;;;;;;;14.99;62.41;97635.22;4946361;28;20172;-78
2022/09/19 08:29:05;;;;;;;5.75;1.42;;;;;;;15.04;63.75;97629.22;4947770;28;20165;-78
2022/09/19 08:31:31;;;;;;;3.10;1.10;;;;;;;15.03;61.57;97636.28;4929030;28;20241;-78
2022/09/19 08:33:56;;;;;;;3.78;1.20;;;;;;;15.23;60.99;97634.72;4957075;28;20292;-79
2022/09/19 08:36:22;;;;;;;3.78;1.23;;;;;;;15.20;62.30;97622.13;4945952;28;20599;-78
2022/09/19 08:38:47;;;;;;;4.03;1.48;;;;;;;15.53;60.73;97624.19;4959459;28;20698;-78
2022/09/19 08:41:41;;;;;;;8.60;1.70;;;;;;;15.61;59.91;97638.63;4962354;28;20283;-78
2022/09/19 08:44:27;;;;;;;5.32;1.60;;;;;;;15.78;58.25;97633.13;4964377;28;20269;-78
2022/09/19 08:47:17;;;;;;;7.30;1.38;;;;;;;15.59;60.95;97643.34;4952372;28;20192;-78
2022/09/19 08:49:55;;;;;;;2.35;1.20;;;;;;;16.06;58.78;97651.94;4924505;28;20240;-78
2022/09/19 08:52:48;;;;;;;6.30;1.00;;;;;;;15.86;58.69;97653.56;4913244;28;20497;-78
2022/09/19 08:55:16;;;;;;;4.20;1.20;;;;;;;15.94;59.70;97651.44;4912762;28;20641;-78
2022/09/19 08:57:52;;;;;;;5.07;1.05;;;;;;;15.89;59.03;97653.03;4913155;28;20169;-78
2022/09/19 09:00:20;;;;;;;4.50;1.27;;;;;;;16.23;57.95;97668.16;4951127;28;20555;-78
2022/09/19 09:02:51;;;;;;;4.88;1.00;;;;;;;16.28;57.15;97670.78;4958715;28;20188;-78
2022/09/19 09:05:44;;;;;;;6.90;1.33;;;;;;;16.14;60.20;97672.38;4959764;28;20296;-79
2022/09/19 09:08:34;;;;;;;3.58;1.98;;;;;;;16.28;60.09;97676.03;4925014;28;20223;-78
2022/09/19 09:11:30;;;;;;;4.43;1.67;;;;;;;16.37;57.52;97671.00;4940880;28;20691;-79
2022/09/19 09:14:23;;;;;;;5.05;1.20;;;;;;;16.09;57.43;97672.41;4946728;28;20219;-78
2022/09/19 09:17:17;;;;;;;6.10;1.38;;;;;;;16.14;58.20;97677.63;4935032;28;20636;-78
2022/09/19 09:19:53;;;;;;;6.72;1.77;;;;;;;16.24;57.65;97674.97;4966434;28;20170;-78
2022/09/19 09:22:33;;;;;;;8.25;1.80;;;;;;;16.22;56.19;97682.34;4964045;28;20719;-79
2022/09/19 09:25:14;;;;;;;6.90;1.58;;;;;;;16.31;55.86;97677.31;4963741;28;20280;-79
2022/09/19 09:27:56;;;;;;;3.67;1.10;;;;;;;16.20;56.41;97678.44;4909120;28;20239;-78
2022/09/19 09:30:22;;;;;;;4.00;0.93;;;;;;;16.37;57.98;97667.59;4959965;28;20759;-78
2022/09/19 09:32:50;;;;;;;5.07;1.30;;;;;;;16.19;58.92;97676.84;4944289;28;20355;-78
2022/09/19 09:35:29;;;;;;;3.50;1.08;;;;;;;16.18;57.39;97675.28;4935159;28;20234;-78
2022/09/19 09:38:25;;;;;;;1.73;1.05;;;;;;;16.04;56.79;97670.59;4961477;28;20207;-78
2022/09/19 09:44:07;;;;;;;4.70;0.90;;;;;;;16.13;58.25;97678.72;4946127;28;20072;-78
2022/09/19 09:46:44;;;;;;;2.40;0.88;;;;;;;16.04;57.80;97672.41;4943258;28;20223;-78
2022/09/19 09:49:12;;;;;;;2.83;0.80;;;;;;;16.23;57.83;97668.16;4953555;28;20269;-78
2022/09/19 09:51:56;;;;;;;2.97;0.75;;;;;;;16.36;58.63;97666.00;4948237;28;20195;-78
2022/09/19 09:57:42;;;;;;;4.53;0.95;;;;;;;16.98;56.46;97669.13;4946730;28;20192;-78
2022/09/19 10:03:35;;;;;;;5.13;1.52;;;;;;;16.89;56.85;97668.91;4958033;28;20199;-78
2022/09/19 10:06:13;;;;;;;2.47;0.90;;;;;;;16.67;56.79;97664.00;4910460;28;20275;-78
2022/09/19 10:08:44;;;;;;;3.67;1.08;;;;;;;16.70;56.53;97667.94;4956760;28;20210;-79
2022/09/19 10:11:22;;;;;;;5.00;1.15;;;;;;;16.69;55.73;97669.00;4943782;28;20194;-78
2022/09/19 10:14:01;;;;;;;6.53;1.25;;;;;;;16.81;54.83;97661.56;4947259;28;20455;-78
2022/09/19 10:16:32;;;;;;;4.53;1.13;;;;;;;16.73;56.96;97662.16;4942334;28;20295;-78
2022/09/19 10:19:35;;;;;;;3.60;1.23;;;;;;;16.73;57.08;97670.81;4923975;28;20207;-78
2022/09/19 10:22:00;;;;;;;5.60;1.13;;;;;;;17.06;54.58;97660.66;4915161;28;20261;-78
2022/09/19 10:24:56;;;;;;;3.58;1.00;;;;;;;16.90;56.38;97659.97;4942571;28;20280;-77
2022/09/19 10:27:31;;;;;;;4.95;1.83;;;;;;;17.07;55.82;97659.59;4955469;28;20235;-78
2022/09/19 10:29:59;;;;;;;3.13;0.82;;;;;;;17.16;56.85;97662.44;4960772;28;20186;-78
2022/09/19 10:32:27;;;;;;;3.65;0.90;;;;;;;17.23;56.41;97662.88;4935841;28;20326;-78
2022/09/19 10:34:53;;;;;;;4.32;1.20;;;;;;;17.24;56.48;97661.84;4960123;28;20194;-78
2022/09/19 10:37:21;;;;;;;4.70;0.93;;;;;;;17.21;56.22;97667.66;4930325;28;20588;-77
2022/09/19 10:39:48;;;;;;;3.42;0.90;;;;;;;17.21;55.67;97662.38;4956239;28;20226;-78
2022/09/19 10:42:25;;;;;;;2.65;1.63;;;;;;;17.08;55.33;97660.38;4924178;28;20300;-78
2022/09/19 10:44:52;;;;;;;5.07;1.45;;;;;;;17.11;55.38;97662.47;4957030;28;20701;-78
2022/09/19 10:47:17;;;;;;;4.75;0.75;;;;;;;17.13;56.10;97662.97;4929737;28;20307;-77
2022/09/19 10:49:45;;;;;;;3.42;1.60;;;;;;;17.14;54.96;97662.69;4957358;28;20331;-78
2022/09/19 10:52:12;;;;;;;4.53;2.40;;;;;;;17.13;56.17;97657.72;4958547;28;20260;-78
2022/09/19 10:54:41;;;;;;;7.90;6.18;;;;;;;17.02;55.75;97655.16;4947155;28;20253;-78
2022/09/19 10:57:41;;;;;;;8.82;7.85;;;;;;;16.88;55.24;97677.88;4928112;28;20208;-79
2022/09/19 11:00:30;;;;;;;2.90;1.20;;;;;;;16.77;55.23;97677.09;4946420;28;20364;-78
2022/09/19 11:02:57;;;;;;;2.33;1.08;;;;;;;16.91;54.22;97672.03;4947018;28;20222;-78
2022/09/19 11:05:34;;;;;;;4.55;1.60;;;;;;;16.82;55.15;97677.06;4944392;28;20237;-78
2022/09/19 11:08:00;;;;;;;3.67;2.28;;;;;;;17.26;54.44;97677.38;4927587;28;20708;-78
2022/09/19 11:10:39;;;;;;;4.28;1.50;;;;;;;17.17;54.41;97671.88;4928410;28;20295;-78
2022/09/19 11:13:25;;;;;;;1.50;1.15;;;;;;;17.25;53.04;97671.28;4946623;28;20277;-78
2022/09/19 11:16:22;;;;;;;2.67;1.77;;;;;;;17.48;52.39;97671.63;4966688;28;20197;-78
2022/09/19 11:18:57;;;;;;;1.52;0.47;;;;;;;17.50;52.69;97674.78;4962500;28;20074;-78
2022/09/19 11:22:05;;;;;;;4.15;2.22;;;;;;;17.74;50.54;97670.34;4959625;28;20659;-78
2022/09/19 11:25:02;;;;;;;3.17;1.60;;;;;;;17.61;50.57;97668.34;4928879;28;20622;-78
2022/09/19 11:27:49;;;;;;;3.72;1.17;;;;;;;17.62;51.05;97664.69;4907320;28;21716;-78
2022/09/19 11:30:24;;;;;;;6.93;2.30;;;;;;;18.00;50.51;97670.13;4921025;28;20238;-78
2022/09/19 11:33:23;;;;;;;4.13;1.77;;;;;;;17.71;50.10;97667.50;4953477;28;20247;-78
2022/09/19 11:36:08;;;;;;;6.22;2.85;;;;;;;17.66;49.24;97664.91;4942546;28;20165;-78
2022/09/19 11:39:12;;;;;;;4.90;2.90;;;;;;;17.84;49.13;97666.03;4952638;28;20565;-77
2022/09/19 11:42:05;;;;;;;2.22;1.08;;;;;;;17.88;48.03;97656.56;4963933;28;20556;-78
2022/09/19 11:44:51;;;;;;;0.90;0.52;;;;;;;17.94;49.42;97655.41;4957386;28;20603;-78
2022/09/19 11:47:44;;;;;;;3.38;1.00;;;;;;;17.85;49.70;97651.81;4921923;28;20279;-78
2022/09/19 11:50:43;;;;;;;1.77;1.33;;;;;;;17.98;48.86;97656.44;4963554;28;20206;-77
2022/09/19 11:53:40;;;;;;;3.92;2.42;;;;;;;17.97;48.45;97654.84;4962088;28;20227;-78
2022/09/19 11:56:42;;;;;;;4.18;1.50;;;;;;;17.86;49.39;97646.28;4944556;28;20210;-77
2022/09/19 11:59:13;;;;;;;1.40;0.90;;;;;;;18.08;49.87;97655.56;4955184;28;20160;-78
2022/09/19 12:02:19;;;;;;;1.67;0.80;;;;;;;18.05;49.09;97645.56;4948066;28;20284;-78
2022/09/19 12:05:17;;;;;;;1.75;0.68;;;;;;;18.20;48.48;97644.59;4939918;28;20250;-78
2022/09/19 12:07:49;;;;;;;2.88;0.50;;;;;;;18.11;48.47;97641.78;4912930;28;20160;-78
2022/09/19 12:10:14;;;;;;;2.47;0.77;;;;;;;18.36;47.61;97645.19;4937020;28;20973;-78
2022/09/19 12:12:43;;;;;;;1.73;0.65;;;;;;;18.15;47.47;97640.19;4952434;28;20117;-78